sensor_id;sensor_type;location;lat;lon;timestamp;pressure;altitude;pressure_sealevel;temperature;humidity
61618;BME280;47518;51.776;9.370;2023-04-07T00:01:48;100253.28;;;8.91;52.75
61618;BME280;47518;51.776;9.370;2023-04-07T00:04:14;100244.81;;;8.86;53.43
61618;BME280;47518;51.776;9.370;2023-04-07T00:06:39;100247.03;;;8.90;54.26
61618;BME280;47518;51.776;9.370;2023-04-07T00:09:05;100248.22;;;8.96;55.20
61618;BME280;47518;51.776;9.370;2023-04-07T00:11:30;100254.81;;;8.85;55.86
61618;BME280;47518;51.776;9.370;2023-04-07T00:13:56;100262.44;;;8.90;56.14
61618;BME280;47518;51.776;9.370;2023-04-07T00:16:21;100251.06;;;8.70;55.80
61618;BME280;47518;51.776;9.370;2023-04-07T00:18:46;100251.88;;;8.62;56.81
61618;BME280;47518;51.776;9.370;2023-04-07T00:21:12;100259.97;;;8.12;57.48
61618;BME280;47518;51.776;9.370;2023-04-07T00:23:37;100257.28;;;8.12;57.48
61618;BME280;47518;51.776;9.370;2023-04-07T00:26:03;100253.16;;;8.00;58.12
61618;BME280;47518;51.776;9.370;2023-04-07T00:28:28;100253.84;;;8.02;58.96
61618;BME280;47518;51.776;9.370;2023-04-07T00:30:53;100252.78;;;7.95;59.58
61618;BME280;47518;51.776;9.370;2023-04-07T00:33:18;100248.31;;;7.85;59.30
61618;BME280;47518;51.776;9.370;2023-04-07T00:35:44;100248.88;;;7.89;59.26
61618;BME280;47518;51.776;9.370;2023-04-07T00:38:10;100244.94;;;7.83;60.50
61618;BME280;47518;51.776;9.370;2023-04-07T00:40:35;100245.78;;;7.84;60.66
61618;BME280;47518;51.776;9.370;2023-04-07T00:43:01;100249.03;;;7.87;61.85
61618;BME280;47518;51.776;9.370;2023-04-07T00:45:26;100246.63;;;7.84;63.27
61618;BME280;47518;51.776;9.370;2023-04-07T00:47:51;100246.69;;;7.93;62.74
61618;BME280;47518;51.776;9.370;2023-04-07T00:50:17;100244.47;;;8.30;62.81
61618;BME280;47518;51.776;9.370;2023-04-07T00:52:43;100251.72;;;8.22;60.50
61618;BME280;47518;51.776;9.370;2023-04-07T00:55:09;100239.19;;;8.20;61.88
61618;BME280;47518;51.776;9.370;2023-04-07T00:57:34;100250.59;;;7.98;62.16
61618;BME280;47518;51.776;9.370;2023-04-07T01:00:00;100240.59;;;7.99;63.12
61618;BME280;47518;51.776;9.370;2023-04-07T01:02:34;100247.97;;;7.80;64.69
61618;BME280;47518;51.776;9.370;2023-04-07T01:05:13;100240.53;;;7.56;67.09
61618;BME280;47518;51.776;9.370;2023-04-07T01:08:11;100235.59;;;7.52;68.82
61618;BME280;47518;51.776;9.370;2023-04-07T01:13:42;100235.81;;;7.58;67.71
61618;BME280;47518;51.776;9.370;2023-04-07T01:16:12;100227.47;;;7.52;69.16
61618;BME280;47518;51.776;9.370;2023-04-07T01:18:43;100228.91;;;7.38;69.69
61618;BME280;47518;51.776;9.370;2023-04-07T01:21:13;100229.59;;;7.40;69.56
61618;BME280;47518;51.776;9.370;2023-04-07T01:24:21;100228.56;;;7.59;69.68
61618;BME280;47518;51.776;9.370;2023-04-07T01:26:46;100228.13;;;7.72;70.74
61618;BME280;47518;51.776;9.370;2023-04-07T01:29:36;100226.09;;;7.74;70.52
61618;BME280;47518;51.776;9.370;2023-04-07T01:32:04;100228.88;;;7.56;71.66
61618;BME280;47518;51.776;9.370;2023-04-07T01:34:32;100226.91;;;7.66;72.09
61618;BME280;47518;51.776;9.370;2023-04-07T01:37:01;100222.66;;;7.64;72.15
61618;BME280;47518;51.776;9.370;2023-04-07T01:39:27;100219.31;;;7.70;72.57
61618;BME280;47518;51.776;9.370;2023-04-07T01:41:54;100213.38;;;7.66;72.48
61618;BME280;47518;51.776;9.370;2023-04-07T01:44:20;100213.69;;;7.97;71.37
61618;BME280;47518;51.776;9.370;2023-04-07T01:46:47;100206.72;;;7.86;71.94
61618;BME280;47518;51.776;9.370;2023-04-07T01:49:15;100210.63;;;7.92;72.26
61618;BME280;47518;51.776;9.370;2023-04-07T01:51:41;100212.56;;;7.74;73.05
61618;BME280;47518;51.776;9.370;2023-04-07T01:54:07;100222.81;;;7.88;71.74
61618;BME280;47518;51.776;9.370;2023-04-07T01:56:33;100216.94;;;8.01;72.58
61618;BME280;47518;51.776;9.370;2023-04-07T01:58:58;100227.31;;;8.13;72.50
61618;BME280;47518;51.776;9.370;2023-04-07T02:01:24;100227.13;;;8.07;73.11
61618;BME280;47518;51.776;9.370;2023-04-07T02:06:47;100228.03;;;7.55;74.16
61618;BME280;47518;51.776;9.370;2023-04-07T02:09:15;100226.63;;;7.51;75.06
61618;BME280;47518;51.776;9.370;2023-04-07T02:11:42;100216.66;;;7.52;74.64
61618;BME280;47518;51.776;9.370;2023-04-07T02:14:09;100221.19;;;7.43;75.84
61618;BME280;47518;51.776;9.370;2023-04-07T02:16:36;100221.53;;;7.74;74.84
61618;BME280;47518;51.776;9.370;2023-04-07T02:19:02;100222.84;;;7.96;73.84
61618;BME280;47518;51.776;9.370;2023-04-07T02:21:29;100218.13;;;7.64;74.49
61618;BME280;47518;51.776;9.370;2023-04-07T02:23:55;100220.63;;;7.92;74.11
61618;BME280;47518;51.776;9.370;2023-04-07T02:26:20;100212.00;;;7.96;73.34
61618;BME280;47518;51.776;9.370;2023-04-07T02:28:46;100215.28;;;7.74;74.68
61618;BME280;47518;51.776;9.370;2023-04-07T02:31:11;100214.41;;;8.07;73.38
61618;BME280;47518;51.776;9.370;2023-04-07T02:33:38;100217.91;;;7.57;74.65
61618;BME280;47518;51.776;9.370;2023-04-07T02:36:07;100218.88;;;7.82;74.64
61618;BME280;47518;51.776;9.370;2023-04-07T02:38:32;100217.75;;;7.93;74.00
61618;BME280;47518;51.776;9.370;2023-04-07T02:40:57;100222.53;;;7.99;73.98
61618;BME280;47518;51.776;9.370;2023-04-07T02:43:23;100217.41;;;7.88;74.38
61618;BME280;47518;51.776;9.370;2023-04-07T02:45:49;100227.94;;;7.65;73.69
61618;BME280;47518;51.776;9.370;2023-04-07T02:48:15;100216.78;;;7.68;74.73
61618;BME280;47518;51.776;9.370;2023-04-07T02:50:40;100222.91;;;7.52;75.27
61618;BME280;47518;51.776;9.370;2023-04-07T02:53:06;100216.47;;;7.45;75.64
61618;BME280;47518;51.776;9.370;2023-04-07T02:55:31;100212.00;;;7.36;75.18
61618;BME280;47518;51.776;9.370;2023-04-07T02:57:56;100219.09;;;7.37;74.86
61618;BME280;47518;51.776;9.370;2023-04-07T03:00:22;100218.66;;;7.24;76.28
61618;BME280;47518;51.776;9.370;2023-04-07T03:02:47;100216.88;;;7.32;76.48
61618;BME280;47518;51.776;9.370;2023-04-07T03:05:12;100213.81;;;7.53;75.05
61618;BME280;47518;51.776;9.370;2023-04-07T03:07:38;100211.56;;;7.49;74.58
61618;BME280;47518;51.776;9.370;2023-04-07T03:10:04;100205.69;;;7.79;73.33
61618;BME280;47518;51.776;9.370;2023-04-07T03:12:29;100208.81;;;7.67;73.74
61618;BME280;47518;51.776;9.370;2023-04-07T03:14:55;100210.22;;;7.45;74.32
61618;BME280;47518;51.776;9.370;2023-04-07T03:17:20;100205.72;;;7.61;74.49
61618;BME280;47518;51.776;9.370;2023-04-07T03:19:46;100205.47;;;7.73;74.05
61618;BME280;47518;51.776;9.370;2023-04-07T03:22:11;100210.72;;;7.48;73.93
61618;BME280;47518;51.776;9.370;2023-04-07T03:24:36;100200.16;;;7.63;73.24
61618;BME280;47518;51.776;9.370;2023-04-07T03:27:03;100207.34;;;7.46;74.22
61618;BME280;47518;51.776;9.370;2023-04-07T03:29:29;100201.19;;;7.36;73.79
61618;BME280;47518;51.776;9.370;2023-04-07T03:31:54;100201.69;;;7.14;74.50
61618;BME280;47518;51.776;9.370;2023-04-07T03:34:20;100202.34;;;7.59;73.83
61618;BME280;47518;51.776;9.370;2023-04-07T03:36:45;100202.91;;;7.71;72.93
61618;BME280;47518;51.776;9.370;2023-04-07T03:39:10;100195.13;;;7.68;72.67
61618;BME280;47518;51.776;9.370;2023-04-07T03:41:35;100203.47;;;7.83;72.27
61618;BME280;47518;51.776;9.370;2023-04-07T03:44:01;100194.81;;;7.71;72.58
61618;BME280;47518;51.776;9.370;2023-04-07T03:46:27;100195.31;;;7.75;72.60
61618;BME280;47518;51.776;9.370;2023-04-07T03:48:52;100189.88;;;7.67;72.21
61618;BME280;47518;51.776;9.370;2023-04-07T03:51:17;100197.56;;;7.79;72.71
61618;BME280;47518;51.776;9.370;2023-04-07T03:53:43;100194.41;;;7.92;71.49
61618;BME280;47518;51.776;9.370;2023-04-07T03:56:11;100189.84;;;7.93;71.16
61618;BME280;47518;51.776;9.370;2023-04-07T03:58:37;100193.00;;;7.80;71.29
61618;BME280;47518;51.776;9.370;2023-04-07T04:01:02;100187.47;;;7.64;71.23
61618;BME280;47518;51.776;9.370;2023-04-07T04:03:28;100194.44;;;7.66;71.17
61618;BME280;47518;51.776;9.370;2023-04-07T04:05:53;100199.81;;;7.58;71.25
61618;BME280;47518;51.776;9.370;2023-04-07T04:08:19;100192.38;;;7.60;70.87
61618;BME280;47518;51.776;9.370;2023-04-07T04:10:44;100196.09;;;7.33;71.51
61618;BME280;47518;51.776;9.370;2023-04-07T04:13:10;100192.91;;;7.38;71.29
61618;BME280;47518;51.776;9.370;2023-04-07T04:15:35;100203.72;;;7.38;71.10
61618;BME280;47518;51.776;9.370;2023-04-07T04:18:01;100205.13;;;7.42;71.38
61618;BME280;47518;51.776;9.370;2023-04-07T04:20:26;100205.59;;;7.37;71.75
61618;BME280;47518;51.776;9.370;2023-04-07T04:22:51;100201.34;;;7.35;71.53
61618;BME280;47518;51.776;9.370;2023-04-07T04:25:17;100200.81;;;7.31;71.13
61618;BME280;47518;51.776;9.370;2023-04-07T04:27:42;100204.78;;;7.19;70.97
61618;BME280;47518;51.776;9.370;2023-04-07T04:30:08;100205.72;;;7.10;69.32
61618;BME280;47518;51.776;9.370;2023-04-07T04:32:33;100206.34;;;7.03;70.25
61618;BME280;47518;51.776;9.370;2023-04-07T04:34:59;100210.91;;;7.03;68.96
61618;BME280;47518;51.776;9.370;2023-04-07T04:37:24;100208.91;;;6.87;68.19
61618;BME280;47518;51.776;9.370;2023-04-07T04:39:51;100201.94;;;7.02;68.20
61618;BME280;47518;51.776;9.370;2023-04-07T04:42:19;100210.28;;;6.91;68.13
61618;BME280;47518;51.776;9.370;2023-04-07T04:44:44;100206.75;;;6.91;67.08
61618;BME280;47518;51.776;9.370;2023-04-07T04:47:09;100207.13;;;6.78;67.14
61618;BME280;47518;51.776;9.370;2023-04-07T04:49:35;100206.66;;;6.83;67.28
61618;BME280;47518;51.776;9.370;2023-04-07T04:52:03;100209.06;;;6.86;67.56
61618;BME280;47518;51.776;9.370;2023-04-07T04:54:29;100217.03;;;6.87;68.21
61618;BME280;47518;51.776;9.370;2023-04-07T04:56:54;100215.47;;;6.85;66.39
61618;BME280;47518;51.776;9.370;2023-04-07T04:59:22;100226.44;;;6.83;67.89
61618;BME280;47518;51.776;9.370;2023-04-07T05:01:47;100219.56;;;6.89;65.45
61618;BME280;47518;51.776;9.370;2023-04-07T05:04:12;100216.94;;;6.79;65.77
61618;BME280;47518;51.776;9.370;2023-04-07T05:06:40;100214.47;;;6.86;64.48
61618;BME280;47518;51.776;9.370;2023-04-07T05:09:08;100227.38;;;6.74;63.20
61618;BME280;47518;51.776;9.370;2023-04-07T05:11:33;100225.56;;;6.83;64.38
61618;BME280;47518;51.776;9.370;2023-04-07T05:13:59;100233.25;;;6.87;62.77
61618;BME280;47518;51.776;9.370;2023-04-07T05:16:27;100237.25;;;6.83;62.93
61618;BME280;47518;51.776;9.370;2023-04-07T05:18:52;100225.34;;;7.12;62.93
61618;BME280;47518;51.776;9.370;2023-04-07T05:21:17;100226.75;;;6.98;62.71
61618;BME280;47518;51.776;9.370;2023-04-07T05:23:46;100229.75;;;6.77;62.78
61618;BME280;47518;51.776;9.370;2023-04-07T05:26:11;100235.78;;;7.07;62.98
61618;BME280;47518;51.776;9.370;2023-04-07T05:28:36;100236.91;;;7.22;62.33
61618;BME280;47518;51.776;9.370;2023-04-07T05:31:04;100236.84;;;7.14;62.52
61618;BME280;47518;51.776;9.370;2023-04-07T05:33:30;100243.16;;;7.22;61.79
61618;BME280;47518;51.776;9.370;2023-04-07T05:35:55;100229.38;;;7.08;63.02
61618;BME280;47518;51.776;9.370;2023-04-07T05:38:20;100238.25;;;7.18;61.82
61618;BME280;47518;51.776;9.370;2023-04-07T05:40:46;100230.16;;;7.26;61.93
61618;BME280;47518;51.776;9.370;2023-04-07T05:43:11;100239.22;;;7.35;60.77
61618;BME280;47518;51.776;9.370;2023-04-07T05:45:36;100235.59;;;7.26;60.71
61618;BME280;47518;51.776;9.370;2023-04-07T05:48:02;100235.31;;;7.37;60.66
61618;BME280;47518;51.776;9.370;2023-04-07T05:50:27;100232.00;;;7.43;61.72
61618;BME280;47518;51.776;9.370;2023-04-07T05:52:52;100235.97;;;7.31;62.02
61618;BME280;47518;51.776;9.370;2023-04-07T05:55:18;100239.22;;;7.17;61.75
61618;BME280;47518;51.776;9.370;2023-04-07T05:57:43;100239.03;;;7.36;61.87
61618;BME280;47518;51.776;9.370;2023-04-07T06:00:09;100238.63;;;7.49;61.76
61618;BME280;47518;51.776;9.370;2023-04-07T06:02:34;100239.75;;;7.64;61.80
61618;BME280;47518;51.776;9.370;2023-04-07T06:05:00;100240.34;;;7.76;60.83
61618;BME280;47518;51.776;9.370;2023-04-07T06:07:25;100245.84;;;7.92;60.46
61618;BME280;47518;51.776;9.370;2023-04-07T06:24:55;100260.00;;;7.16;62.37
61618;BME280;47518;51.776;9.370;2023-04-07T06:27:20;100262.00;;;7.32;61.27
61618;BME280;47518;51.776;9.370;2023-04-07T06:29:46;100261.34;;;7.56;60.37
61618;BME280;47518;51.776;9.370;2023-04-07T06:32:11;100268.38;;;7.49;60.05
61618;BME280;47518;51.776;9.370;2023-04-07T06:34:36;100263.38;;;7.54;60.74
61618;BME280;47518;51.776;9.370;2023-04-07T06:37:02;100267.13;;;7.61;59.66
61618;BME280;47518;51.776;9.370;2023-04-07T06:39:29;100266.63;;;7.92;59.19
61618;BME280;47518;51.776;9.370;2023-04-07T06:41:54;100264.09;;;7.90;59.40
61618;BME280;47518;51.776;9.370;2023-04-07T06:44:21;100275.59;;;7.92;59.16
61618;BME280;47518;51.776;9.370;2023-04-07T06:46:46;100278.09;;;8.11;58.39
61618;BME280;47518;51.776;9.370;2023-04-07T06:49:14;100274.66;;;8.35;58.13
61618;BME280;47518;51.776;9.370;2023-04-07T06:51:40;100273.66;;;8.44;57.45
61618;BME280;47518;51.776;9.370;2023-04-07T06:54:05;100279.59;;;8.40;58.17
61618;BME280;47518;51.776;9.370;2023-04-07T06:56:36;100272.03;;;8.68;57.31
61618;BME280;47518;51.776;9.370;2023-04-07T06:59:02;100287.41;;;8.51;57.86
61618;BME280;47518;51.776;9.370;2023-04-07T07:01:30;100283.34;;;8.55;58.01
61618;BME280;47518;51.776;9.370;2023-04-07T07:03:56;100284.06;;;8.57;57.32
61618;BME280;47518;51.776;9.370;2023-04-07T07:06:21;100280.94;;;8.44;58.06
61618;BME280;47518;51.776;9.370;2023-04-07T07:08:46;100277.63;;;8.58;57.52
61618;BME280;47518;51.776;9.370;2023-04-07T07:11:12;100278.91;;;8.38;58.24
61618;BME280;47518;51.776;9.370;2023-04-07T07:13:37;100290.47;;;8.56;57.15
61618;BME280;47518;51.776;9.370;2023-04-07T07:16:02;100287.25;;;8.53;57.42
61618;BME280;47518;51.776;9.370;2023-04-07T07:18:28;100288.31;;;8.60;57.85
61618;BME280;47518;51.776;9.370;2023-04-07T07:20:53;100296.19;;;8.45;58.22
61618;BME280;47518;51.776;9.370;2023-04-07T07:23:18;100298.25;;;8.51;58.05
61618;BME280;47518;51.776;9.370;2023-04-07T07:25:44;100296.94;;;8.63;57.95
61618;BME280;47518;51.776;9.370;2023-04-07T07:28:09;100304.44;;;8.69;57.96
61618;BME280;47518;51.776;9.370;2023-04-07T07:30:35;100304.06;;;8.64;56.63
61618;BME280;47518;51.776;9.370;2023-04-07T07:33:00;100295.47;;;8.85;56.79
61618;BME280;47518;51.776;9.370;2023-04-07T07:35:25;100296.53;;;9.09;56.28
61618;BME280;47518;51.776;9.370;2023-04-07T07:37:51;100294.69;;;9.25;56.33
61618;BME280;47518;51.776;9.370;2023-04-07T07:40:17;100295.03;;;9.22;54.11
61618;BME280;47518;51.776;9.370;2023-04-07T07:42:44;100301.81;;;9.59;54.10
61618;BME280;47518;51.776;9.370;2023-04-07T07:45:10;100307.06;;;9.85;52.63
61618;BME280;47518;51.776;9.370;2023-04-07T07:47:37;100299.06;;;9.83;52.79
61618;BME280;47518;51.776;9.370;2023-04-07T07:50:03;100307.19;;;10.00;51.40
61618;BME280;47518;51.776;9.370;2023-04-07T07:52:29;100310.06;;;10.06;51.47
61618;BME280;47518;51.776;9.370;2023-04-07T07:54:55;100308.56;;;9.96;51.66
61618;BME280;47518;51.776;9.370;2023-04-07T07:57:20;100301.53;;;10.34;49.81
61618;BME280;47518;51.776;9.370;2023-04-07T07:59:46;100302.19;;;10.44;48.63
61618;BME280;47518;51.776;9.370;2023-04-07T08:02:11;100300.09;;;10.85;49.92
61618;BME280;47518;51.776;9.370;2023-04-07T08:04:36;100296.94;;;10.18;49.09
61618;BME280;47518;51.776;9.370;2023-04-07T08:07:02;100297.59;;;10.44;49.30
61618;BME280;47518;51.776;9.370;2023-04-07T08:09:28;100306.56;;;11.15;47.16
61618;BME280;47518;51.776;9.370;2023-04-07T08:11:53;100303.72;;;10.77;46.79
61618;BME280;47518;51.776;9.370;2023-04-07T08:14:19;100307.63;;;10.44;47.55
61618;BME280;47518;51.776;9.370;2023-04-07T08:16:44;100303.63;;;10.07;48.69
61618;BME280;47518;51.776;9.370;2023-04-07T08:19:11;100306.84;;;10.03;48.49
61618;BME280;47518;51.776;9.370;2023-04-07T08:21:36;100312.28;;;10.11;49.14
61618;BME280;47518;51.776;9.370;2023-04-07T08:24:01;100312.75;;;10.14;49.42
61618;BME280;47518;51.776;9.370;2023-04-07T08:26:27;100311.31;;;9.87;50.63
61618;BME280;47518;51.776;9.370;2023-04-07T08:28:55;100313.47;;;9.92;50.26
61618;BME280;47518;51.776;9.370;2023-04-07T08:31:20;100316.19;;;9.84;51.87
61618;BME280;47518;51.776;9.370;2023-04-07T08:33:46;100313.13;;;10.11;51.07
61618;BME280;47518;51.776;9.370;2023-04-07T08:36:11;100311.66;;;10.48;50.42
61618;BME280;47518;51.776;9.370;2023-04-07T08:38:37;100319.66;;;10.89;49.31
61618;BME280;47518;51.776;9.370;2023-04-07T08:41:07;100315.66;;;11.45;47.67
61618;BME280;47518;51.776;9.370;2023-04-07T08:43:34;100324.84;;;11.67;47.31
61618;BME280;47518;51.776;9.370;2023-04-07T08:46:02;100314.13;;;11.65;46.71
61618;BME280;47518;51.776;9.370;2023-04-07T08:48:29;100322.31;;;11.65;47.54
61618;BME280;47518;51.776;9.370;2023-04-07T08:50:59;100323.00;;;11.45;48.38
61618;BME280;47518;51.776;9.370;2023-04-07T08:53:34;100323.56;;;11.09;49.02
61618;BME280;47518;51.776;9.370;2023-04-07T08:56:01;100325.94;;;10.89;48.83
61618;BME280;47518;51.776;9.370;2023-04-07T08:58:27;100326.00;;;11.04;48.94
61618;BME280;47518;51.776;9.370;2023-04-07T09:00:54;100325.59;;;11.15;48.58
61618;BME280;47518;51.776;9.370;2023-04-07T09:03:20;100322.00;;;10.92;49.96
61618;BME280;47518;51.776;9.370;2023-04-07T09:05:48;100328.31;;;11.38;49.42
61618;BME280;47518;51.776;9.370;2023-04-07T09:08:13;100328.78;;;11.19;48.98
61618;BME280;47518;51.776;9.370;2023-04-07T09:10:39;100332.75;;;11.77;48.71
61618;BME280;47518;51.776;9.370;2023-04-07T09:13:04;100334.94;;;12.04;48.23
61618;BME280;47518;51.776;9.370;2023-04-07T09:15:30;100329.97;;;12.08;47.38
61618;BME280;47518;51.776;9.370;2023-04-07T09:17:57;100330.81;;;12.38;48.21
61618;BME280;47518;51.776;9.370;2023-04-07T09:20:23;100334.38;;;12.68;47.08
61618;BME280;47518;51.776;9.370;2023-04-07T09:22:49;100332.25;;;12.99;45.54
61618;BME280;47518;51.776;9.370;2023-04-07T09:25:19;100343.31;;;12.62;45.61
61618;BME280;47518;51.776;9.370;2023-04-07T09:28:03;100345.50;;;12.66;45.47
61618;BME280;47518;51.776;9.370;2023-04-07T09:30:30;100341.31;;;12.11;47.11
61618;BME280;47518;51.776;9.370;2023-04-07T09:32:57;100340.00;;;11.92;47.48
61618;BME280;47518;51.776;9.370;2023-04-07T09:35:23;100342.13;;;11.36;48.70
61618;BME280;47518;51.776;9.370;2023-04-07T09:38:07;100331.63;;;11.94;48.01
61618;BME280;47518;51.776;9.370;2023-04-07T09:40:32;100329.69;;;12.47;46.79
61618;BME280;47518;51.776;9.370;2023-04-07T09:42:58;100345.66;;;12.35;47.00
61618;BME280;47518;51.776;9.370;2023-04-07T09:45:26;100345.66;;;12.06;46.71
61618;BME280;47518;51.776;9.370;2023-04-07T09:47:52;100338.78;;;11.95;48.19
61618;BME280;47518;51.776;9.370;2023-04-07T09:50:34;100332.66;;;11.93;47.29
61618;BME280;47518;51.776;9.370;2023-04-07T09:53:00;100328.31;;;11.84;47.69
61618;BME280;47518;51.776;9.370;2023-04-07T09:55:27;100328.84;;;12.46;47.08
61618;BME280;47518;51.776;9.370;2023-04-07T09:57:53;100329.44;;;12.93;45.48
61618;BME280;47518;51.776;9.370;2023-04-07T10:00:20;100329.75;;;13.34;45.30
61618;BME280;47518;51.776;9.370;2023-04-07T10:02:45;100324.63;;;13.09;45.23
61618;BME280;47518;51.776;9.370;2023-04-07T10:05:12;100326.38;;;13.17;44.23
61618;BME280;47518;51.776;9.370;2023-04-07T10:07:37;100323.97;;;13.93;43.59
61618;BME280;47518;51.776;9.370;2023-04-07T10:10:03;100316.56;;;13.87;43.89
61618;BME280;47518;51.776;9.370;2023-04-07T10:12:30;100315.78;;;13.93;43.48
61618;BME280;47518;51.776;9.370;2023-04-07T10:14:57;100323.03;;;13.36;42.25
61618;BME280;47518;51.776;9.370;2023-04-07T10:17:23;100312.09;;;14.07;41.46
61618;BME280;47518;51.776;9.370;2023-04-07T10:19:49;100317.31;;;14.30;41.15
61618;BME280;47518;51.776;9.370;2023-04-07T10:22:16;100330.91;;;14.86;39.95
61618;BME280;47518;51.776;9.370;2023-04-07T10:27:28;100326.00;;;15.36;38.02
61618;BME280;47518;51.776;9.370;2023-04-07T10:29:55;100321.63;;;14.87;39.03
61618;BME280;47518;51.776;9.370;2023-04-07T10:32:22;100324.66;;;15.12;39.69
61618;BME280;47518;51.776;9.370;2023-04-07T10:37:26;100332.06;;;14.36;39.68
61618;BME280;47518;51.776;9.370;2023-04-07T10:42:56;100334.59;;;14.37;41.02
61618;BME280;47518;51.776;9.370;2023-04-07T10:48:22;100317.19;;;18.24;33.46
61618;BME280;47518;51.776;9.370;2023-04-07T10:57:06;100308.28;;;21.02;27.08
61618;BME280;47518;51.776;9.370;2023-04-07T10:59:35;100317.13;;;20.40;28.17
61618;BME280;47518;51.776;9.370;2023-04-07T11:04:58;100313.13;;;19.78;27.91
61618;BME280;47518;51.776;9.370;2023-04-07T11:07:42;100306.88;;;21.28;26.20
61618;BME280;47518;51.776;9.370;2023-04-07T11:10:10;100311.34;;;20.77;25.78
61618;BME280;47518;51.776;9.370;2023-04-07T11:12:38;100298.47;;;21.51;25.11
61618;BME280;47518;51.776;9.370;2023-04-07T11:15:20;100309.13;;;21.03;24.27
61618;BME280;47518;51.776;9.370;2023-04-07T11:18:06;100303.66;;;21.48;24.51
61618;BME280;47518;51.776;9.370;2023-04-07T11:23:25;100312.53;;;18.68;28.63
61618;BME280;47518;51.776;9.370;2023-04-07T11:25:59;100325.63;;;18.04;28.49
61618;BME280;47518;51.776;9.370;2023-04-07T11:28:26;100312.50;;;17.11;29.95
61618;BME280;47518;51.776;9.370;2023-04-07T11:30:52;100315.91;;;17.00;30.13
61618;BME280;47518;51.776;9.370;2023-04-07T11:33:22;100311.72;;;16.26;30.80
61618;BME280;47518;51.776;9.370;2023-04-07T11:38:35;100299.81;;;17.10;30.11
61618;BME280;47518;51.776;9.370;2023-04-07T11:41:11;100307.19;;;18.04;28.97
61618;BME280;47518;51.776;9.370;2023-04-07T11:43:36;100308.72;;;17.06;31.35
61618;BME280;47518;51.776;9.370;2023-04-07T11:46:05;100315.84;;;16.62;31.67
61618;BME280;47518;51.776;9.370;2023-04-07T11:48:33;100299.31;;;15.78;32.81
61618;BME280;47518;51.776;9.370;2023-04-07T11:50:59;100302.03;;;16.95;31.42
61618;BME280;47518;51.776;9.370;2023-04-07T11:53:27;100304.69;;;16.44;32.23
61618;BME280;47518;51.776;9.370;2023-04-07T11:56:01;100297.34;;;17.02;31.96
61618;BME280;47518;51.776;9.370;2023-04-07T11:58:27;100297.88;;;16.73;31.89
61618;BME280;47518;51.776;9.370;2023-04-07T12:00:54;100303.91;;;16.95;31.93
61618;BME280;47518;51.776;9.370;2023-04-07T12:03:19;100301.72;;;17.10;32.40
61618;BME280;47518;51.776;9.370;2023-04-07T12:05:45;100303.53;;;16.84;33.24
61618;BME280;47518;51.776;9.370;2023-04-07T12:08:12;100302.34;;;16.60;32.67
61618;BME280;47518;51.776;9.370;2023-04-07T12:10:38;100304.56;;;16.90;32.38
61618;BME280;47518;51.776;9.370;2023-04-07T12:13:05;100299.69;;;17.93;30.68
61618;BME280;47518;51.776;9.370;2023-04-07T12:15:31;100304.78;;;17.58;29.49
61618;BME280;47518;51.776;9.370;2023-04-07T12:17:56;100296.84;;;17.12;31.08
61618;BME280;47518;51.776;9.370;2023-04-07T12:20:22;100301.50;;;17.49;30.63
61618;BME280;47518;51.776;9.370;2023-04-07T12:22:47;100292.84;;;18.82;29.52
61618;BME280;47518;51.776;9.370;2023-04-07T12:25:13;100290.69;;;19.44;27.68
61618;BME280;47518;51.776;9.370;2023-04-07T12:27:38;100293.94;;;19.41;28.33
61618;BME280;47518;51.776;9.370;2023-04-07T12:30:03;100286.00;;;18.48;28.40
61618;BME280;47518;51.776;9.370;2023-04-07T12:32:29;100288.09;;;18.89;28.04
61618;BME280;47518;51.776;9.370;2023-04-07T12:34:54;100300.88;;;19.74;26.24
61618;BME280;47518;51.776;9.370;2023-04-07T12:37:19;100296.50;;;20.55;24.22
61618;BME280;47518;51.776;9.370;2023-04-07T12:39:45;100291.38;;;21.27;24.55
61618;BME280;47518;51.776;9.370;2023-04-07T12:42:10;100299.72;;;20.63;24.71
61618;BME280;47518;51.776;9.370;2023-04-07T12:44:36;100297.69;;;20.12;25.65
61618;BME280;47518;51.776;9.370;2023-04-07T12:47:02;100298.78;;;18.98;26.60
61618;BME280;47518;51.776;9.370;2023-04-07T12:49:27;100298.03;;;19.20;27.40
61618;BME280;47518;51.776;9.370;2023-04-07T12:51:53;100294.94;;;18.07;28.37
61618;BME280;47518;51.776;9.370;2023-04-07T12:54:18;100293.16;;;17.63;27.77
61618;BME280;47518;51.776;9.370;2023-04-07T12:56:43;100293.81;;;17.27;29.39
61618;BME280;47518;51.776;9.370;2023-04-07T12:59:08;100294.94;;;17.50;27.86
61618;BME280;47518;51.776;9.370;2023-04-07T13:01:34;100298.22;;;16.96;28.65
61618;BME280;47518;51.776;9.370;2023-04-07T13:04:01;100293.75;;;17.71;27.39
61618;BME280;47518;51.776;9.370;2023-04-07T13:06:29;100301.09;;;17.14;28.69
61618;BME280;47518;51.776;9.370;2023-04-07T13:08:55;100294.06;;;16.80;29.77
61618;BME280;47518;51.776;9.370;2023-04-07T13:11:21;100291.78;;;16.71;28.32
61618;BME280;47518;51.776;9.370;2023-04-07T13:13:46;100300.69;;;16.40;28.46
61618;BME280;47518;51.776;9.370;2023-04-07T13:16:11;100294.47;;;16.77;27.55
61618;BME280;47518;51.776;9.370;2023-04-07T13:18:36;100288.22;;;17.02;28.87
61618;BME280;47518;51.776;9.370;2023-04-07T13:21:02;100297.13;;;17.04;27.49
61618;BME280;47518;51.776;9.370;2023-04-07T13:23:28;100293.41;;;16.85;26.67
61618;BME280;47518;51.776;9.370;2023-04-07T13:25:53;100295.06;;;17.31;26.35
61618;BME280;47518;51.776;9.370;2023-04-07T13:28:18;100291.53;;;18.05;26.32
61618;BME280;47518;51.776;9.370;2023-04-07T13:30:45;100292.97;;;18.32;25.30
61618;BME280;47518;51.776;9.370;2023-04-07T13:33:10;100293.41;;;17.86;25.33
61618;BME280;47518;51.776;9.370;2023-04-07T13:35:36;100294.91;;;18.69;23.14
61618;BME280;47518;51.776;9.370;2023-04-07T13:38:03;100288.97;;;19.32;24.02
61618;BME280;47518;51.776;9.370;2023-04-07T13:40:29;100291.88;;;19.67;24.01